sensor_id;sensor_type;location;lat;lon;timestamp;temperature;humidity
66375;DHT22;53173;52.176;5.314;2023-05-10T00:00:47;14.10;99.90
66375;DHT22;53173;52.176;5.314;2023-05-10T00:03:13;14.20;99.90
66375;DHT22;53173;52.176;5.314;2023-05-10T00:05:40;14.20;99.90
66375;DHT22;53173;52.176;5.314;2023-05-10T00:08:08;14.20;99.90
66375;DHT22;53173;52.176;5.314;2023-05-10T00:10:34;14.30;99.90
66375;DHT22;53173;52.176;5.314;2023-05-10T00:13:07;14.20;99.90
66375;DHT22;53173;52.176;5.314;2023-05-10T00:15:34;14.20;99.90
66375;DHT22;53173;52.176;5.314;2023-05-10T00:18:01;14.10;99.90
66375;DHT22;53173;52.176;5.314;2023-05-10T00:20:28;14.20;99.90
66375;DHT22;53173;52.176;5.314;2023-05-10T00:22:55;14.20;99.90
66375;DHT22;53173;52.176;5.314;2023-05-10T00:25:23;14.20;99.90
66375;DHT22;53173;52.176;5.314;2023-05-10T00:27:51;14.10;99.90
66375;DHT22;53173;52.176;5.314;2023-05-10T00:30:18;14.10;99.90
66375;DHT22;53173;52.176;5.314;2023-05-10T00:32:45;14.10;99.90
66375;DHT22;53173;52.176;5.314;2023-05-10T00:35:15;14.30;99.90
66375;DHT22;53173;52.176;5.314;2023-05-10T00:37:42;14.10;99.90
66375;DHT22;53173;52.176;5.314;2023-05-10T00:40:10;14.00;99.90
66375;DHT22;53173;52.176;5.314;2023-05-10T00:42:36;14.10;99.90
66375;DHT22;53173;52.176;5.314;2023-05-10T00:45:06;14.10;99.90
66375;DHT22;53173;52.176;5.314;2023-05-10T00:47:33;14.10;99.90
66375;DHT22;53173;52.176;5.314;2023-05-10T00:50:01;14.00;99.90
66375;DHT22;53173;52.176;5.314;2023-05-10T00:52:29;14.00;99.90
66375;DHT22;53173;52.176;5.314;2023-05-10T00:54:58;14.00;99.90
66375;DHT22;53173;52.176;5.314;2023-05-10T00:57:25;14.00;99.90
66375;DHT22;53173;52.176;5.314;2023-05-10T00:59:52;13.80;99.90
66375;DHT22;53173;52.176;5.314;2023-05-10T01:02:19;13.80;99.90
66375;DHT22;53173;52.176;5.314;2023-05-10T01:04:46;13.80;99.90
66375;DHT22;53173;52.176;5.314;2023-05-10T01:07:13;13.90;99.90
66375;DHT22;53173;52.176;5.314;2023-05-10T01:09:40;13.80;99.90
66375;DHT22;53173;52.176;5.314;2023-05-10T01:12:07;13.80;99.90
66375;DHT22;53173;52.176;5.314;2023-05-10T01:14:35;13.80;99.90
66375;DHT22;53173;52.176;5.314;2023-05-10T01:17:03;13.70;99.90
66375;DHT22;53173;52.176;5.314;2023-05-10T01:19:31;13.90;99.90
66375;DHT22;53173;52.176;5.314;2023-05-10T01:31:03;13.70;99.90
66375;DHT22;53173;52.176;5.314;2023-05-10T01:34:02;13.70;99.90
66375;DHT22;53173;52.176;5.314;2023-05-10T01:36:39;13.70;99.90
66375;DHT22;53173;52.176;5.314;2023-05-10T01:45:02;13.90;99.90
66375;DHT22;53173;52.176;5.314;2023-05-10T01:47:46;13.60;99.90
66375;DHT22;53173;52.176;5.314;2023-05-10T01:50:18;13.60;99.90
66375;DHT22;53173;52.176;5.314;2023-05-10T01:52:51;13.80;99.90
66375;DHT22;53173;52.176;5.314;2023-05-10T01:55:24;13.50;99.90
66375;DHT22;53173;52.176;5.314;2023-05-10T01:57:57;13.60;99.90
66375;DHT22;53173;52.176;5.314;2023-05-10T02:00:26;13.60;99.90
66375;DHT22;53173;52.176;5.314;2023-05-10T02:02:54;13.80;99.90
66375;DHT22;53173;52.176;5.314;2023-05-10T02:05:22;13.80;99.90
66375;DHT22;53173;52.176;5.314;2023-05-10T02:07:50;13.70;99.90
66375;DHT22;53173;52.176;5.314;2023-05-10T02:10:18;13.90;99.90
66375;DHT22;53173;52.176;5.314;2023-05-10T02:12:47;13.70;99.90
66375;DHT22;53173;52.176;5.314;2023-05-10T02:15:19;13.60;99.90
66375;DHT22;53173;52.176;5.314;2023-05-10T02:17:47;13.60;99.90
66375;DHT22;53173;52.176;5.314;2023-05-10T02:20:16;13.80;99.90
66375;DHT22;53173;52.176;5.314;2023-05-10T02:22:45;13.60;99.90
66375;DHT22;53173;52.176;5.314;2023-05-10T02:25:14;13.60;99.90
66375;DHT22;53173;52.176;5.314;2023-05-10T02:27:43;13.60;99.90
66375;DHT22;53173;52.176;5.314;2023-05-10T02:30:11;13.60;99.90
66375;DHT22;53173;52.176;5.314;2023-05-10T02:32:39;13.60;99.90
66375;DHT22;53173;52.176;5.314;2023-05-10T02:35:07;13.60;99.90
66375;DHT22;53173;52.176;5.314;2023-05-10T02:37:36;13.60;99.90
66375;DHT22;53173;52.176;5.314;2023-05-10T02:40:05;13.60;99.90
66375;DHT22;53173;52.176;5.314;2023-05-10T02:42:35;13.50;99.90
66375;DHT22;53173;52.176;5.314;2023-05-10T02:45:08;13.50;99.90
66375;DHT22;53173;52.176;5.314;2023-05-10T02:47:37;13.50;99.90
66375;DHT22;53173;52.176;5.314;2023-05-10T02:50:05;13.50;99.90
66375;DHT22;53173;52.176;5.314;2023-05-10T02:52:51;13.50;99.90
66375;DHT22;53173;52.176;5.314;2023-05-10T02:55:27;13.40;99.90
66375;DHT22;53173;52.176;5.314;2023-05-10T02:58:00;13.30;99.90
66375;DHT22;53173;52.176;5.314;2023-05-10T03:00:27;13.40;99.90
66375;DHT22;53173;52.176;5.314;2023-05-10T03:02:54;13.40;99.90
66375;DHT22;53173;52.176;5.314;2023-05-10T03:05:21;13.40;99.90
66375;DHT22;53173;52.176;5.314;2023-05-10T03:07:48;13.30;99.90
66375;DHT22;53173;52.176;5.314;2023-05-10T03:10:16;13.30;99.90
66375;DHT22;53173;52.176;5.314;2023-05-10T03:18:11;13.20;99.90
66375;DHT22;53173;52.176;5.314;2023-05-10T03:20:47;13.20;99.90
66375;DHT22;53173;52.176;5.314;2023-05-10T03:26:08;13.30;99.90
66375;DHT22;53173;52.176;5.314;2023-05-10T03:28:36;13.20;99.90
66375;DHT22;53173;52.176;5.314;2023-05-10T03:31:04;13.30;99.90
66375;DHT22;53173;52.176;5.314;2023-05-10T03:33:33;13.20;99.90
66375;DHT22;53173;52.176;5.314;2023-05-10T03:36:00;13.20;99.90
66375;DHT22;53173;52.176;5.314;2023-05-10T03:38:27;13.20;99.90
66375;DHT22;53173;52.176;5.314;2023-05-10T03:40:56;13.20;99.90
66375;DHT22;53173;52.176;5.314;2023-05-10T03:43:23;13.10;99.90
66375;DHT22;53173;52.176;5.314;2023-05-10T03:45:51;13.20;99.90
66375;DHT22;53173;52.176;5.314;2023-05-10T03:48:18;13.20;99.90
66375;DHT22;53173;52.176;5.314;2023-05-10T03:50:45;13.10;99.90
66375;DHT22;53173;52.176;5.314;2023-05-10T03:53:13;13.10;99.90
66375;DHT22;53173;52.176;5.314;2023-05-10T03:55:39;13.30;99.90
66375;DHT22;53173;52.176;5.314;2023-05-10T03:58:10;13.20;99.90
66375;DHT22;53173;52.176;5.314;2023-05-10T04:00:37;13.10;99.90
66375;DHT22;53173;52.176;5.314;2023-05-10T04:03:11;13.20;99.90
66375;DHT22;53173;52.176;5.314;2023-05-10T04:05:38;13.10;99.90
66375;DHT22;53173;52.176;5.314;2023-05-10T04:08:06;13.20;99.90
66375;DHT22;53173;52.176;5.314;2023-05-10T04:10:32;13.20;99.90
66375;DHT22;53173;52.176;5.314;2023-05-10T04:12:59;13.20;99.90
66375;DHT22;53173;52.176;5.314;2023-05-10T04:15:26;13.30;99.90
66375;DHT22;53173;52.176;5.314;2023-05-10T04:17:53;13.40;99.90
66375;DHT22;53173;52.176;5.314;2023-05-10T04:20:20;13.20;99.90
66375;DHT22;53173;52.176;5.314;2023-05-10T04:22:47;13.30;99.90
66375;DHT22;53173;52.176;5.314;2023-05-10T04:25:14;13.30;99.90
66375;DHT22;53173;52.176;5.314;2023-05-10T04:27:40;13.50;99.90
66375;DHT22;53173;52.176;5.314;2023-05-10T04:30:08;13.30;99.90
66375;DHT22;53173;52.176;5.314;2023-05-10T04:32:35;13.30;99.90
66375;DHT22;53173;52.176;5.314;2023-05-10T04:35:02;13.40;99.90
66375;DHT22;53173;52.176;5.314;2023-05-10T04:37:31;13.40;99.90
66375;DHT22;53173;52.176;5.314;2023-05-10T04:39:58;13.30;99.90
66375;DHT22;53173;52.176;5.314;2023-05-10T04:42:26;13.40;99.90
66375;DHT22;53173;52.176;5.314;2023-05-10T04:44:53;13.40;99.90
66375;DHT22;53173;52.176;5.314;2023-05-10T04:47:20;13.60;99.90
66375;DHT22;53173;52.176;5.314;2023-05-10T04:49:47;13.40;99.90
66375;DHT22;53173;52.176;5.314;2023-05-10T04:52:13;13.30;99.90
66375;DHT22;53173;52.176;5.314;2023-05-10T04:54:41;13.60;99.90
66375;DHT22;53173;52.176;5.314;2023-05-10T04:57:08;13.50;99.90
66375;DHT22;53173;52.176;5.314;2023-05-10T04:59:36;13.40;99.90
66375;DHT22;53173;52.176;5.314;2023-05-10T05:02:04;13.40;99.90
66375;DHT22;53173;52.176;5.314;2023-05-10T05:04:31;13.50;99.90
66375;DHT22;53173;52.176;5.314;2023-05-10T05:06:58;13.60;99.90
66375;DHT22;53173;52.176;5.314;2023-05-10T05:09:25;13.50;99.90
66375;DHT22;53173;52.176;5.314;2023-05-10T05:11:52;13.50;99.90
66375;DHT22;53173;52.176;5.314;2023-05-10T05:14:19;13.50;99.90
66375;DHT22;53173;52.176;5.314;2023-05-10T05:16:47;13.50;99.90
66375;DHT22;53173;52.176;5.314;2023-05-10T05:19:14;13.50;99.90
66375;DHT22;53173;52.176;5.314;2023-05-10T05:21:42;13.50;99.90
66375;DHT22;53173;52.176;5.314;2023-05-10T05:24:09;13.50;99.90
66375;DHT22;53173;52.176;5.314;2023-05-10T05:26:36;13.50;99.90
66375;DHT22;53173;52.176;5.314;2023-05-10T05:29:03;13.50;99.90
66375;DHT22;53173;52.176;5.314;2023-05-10T05:31:30;13.50;99.90
66375;DHT22;53173;52.176;5.314;2023-05-10T05:33:57;13.50;99.90
66375;DHT22;53173;52.176;5.314;2023-05-10T05:36:24;13.50;99.90
66375;DHT22;53173;52.176;5.314;2023-05-10T05:38:51;13.70;99.90
66375;DHT22;53173;52.176;5.314;2023-05-10T05:41:18;13.60;99.90
66375;DHT22;53173;52.176;5.314;2023-05-10T05:43:45;13.50;99.90
66375;DHT22;53173;52.176;5.314;2023-05-10T05:46:11;13.70;99.90
66375;DHT22;53173;52.176;5.314;2023-05-10T05:48:38;13.50;99.90
66375;DHT22;53173;52.176;5.314;2023-05-10T05:51:05;13.50;99.90
66375;DHT22;53173;52.176;5.314;2023-05-10T05:53:33;13.40;99.90
66375;DHT22;53173;52.176;5.314;2023-05-10T05:56:00;13.40;99.90
66375;DHT22;53173;52.176;5.314;2023-05-10T05:58:27;13.30;99.90
66375;DHT22;53173;52.176;5.314;2023-05-10T06:00:54;13.60;99.90
66375;DHT22;53173;52.176;5.314;2023-05-10T06:03:21;13.40;99.90
66375;DHT22;53173;52.176;5.314;2023-05-10T06:05:48;13.30;99.90
66375;DHT22;53173;52.176;5.314;2023-05-10T06:08:15;13.30;99.90
66375;DHT22;53173;52.176;5.314;2023-05-10T06:10:42;13.30;99.90
66375;DHT22;53173;52.176;5.314;2023-05-10T06:13:09;13.40;99.90
66375;DHT22;53173;52.176;5.314;2023-05-10T06:15:36;13.40;99.90
66375;DHT22;53173;52.176;5.314;2023-05-10T06:18:03;13.40;99.90
66375;DHT22;53173;52.176;5.314;2023-05-10T06:20:30;13.40;99.90
66375;DHT22;53173;52.176;5.314;2023-05-10T06:22:58;13.50;99.90
66375;DHT22;53173;52.176;5.314;2023-05-10T06:25:25;13.40;99.90
66375;DHT22;53173;52.176;5.314;2023-05-10T06:27:52;13.50;99.90
66375;DHT22;53173;52.176;5.314;2023-05-10T06:30:24;13.60;99.90
66375;DHT22;53173;52.176;5.314;2023-05-10T06:32:54;13.60;99.90
66375;DHT22;53173;52.176;5.314;2023-05-10T06:35:21;13.60;99.90
66375;DHT22;53173;52.176;5.314;2023-05-10T06:37:49;13.60;99.90
66375;DHT22;53173;52.176;5.314;2023-05-10T06:40:16;13.80;99.90
66375;DHT22;53173;52.176;5.314;2023-05-10T06:42:43;13.70;99.90
66375;DHT22;53173;52.176;5.314;2023-05-10T06:45:12;13.80;99.90
66375;DHT22;53173;52.176;5.314;2023-05-10T06:47:39;13.70;99.90
66375;DHT22;53173;52.176;5.314;2023-05-10T06:50:08;13.70;99.90
66375;DHT22;53173;52.176;5.314;2023-05-10T06:52:35;13.60;99.90
66375;DHT22;53173;52.176;5.314;2023-05-10T06:55:03;13.60;99.90
66375;DHT22;53173;52.176;5.314;2023-05-10T06:57:30;13.60;99.90
66375;DHT22;53173;52.176;5.314;2023-05-10T06:59:58;13.60;99.90
66375;DHT22;53173;52.176;5.314;2023-05-10T07:02:25;13.70;99.90
66375;DHT22;53173;52.176;5.314;2023-05-10T07:04:53;13.70;99.90
66375;DHT22;53173;52.176;5.314;2023-05-10T07:07:20;13.60;99.90
66375;DHT22;53173;52.176;5.314;2023-05-10T07:09:47;13.60;99.90
66375;DHT22;53173;52.176;5.314;2023-05-10T07:12:13;13.70;99.90
66375;DHT22;53173;52.176;5.314;2023-05-10T07:14:42;13.60;99.90
66375;DHT22;53173;52.176;5.314;2023-05-10T07:17:09;13.70;99.90
66375;DHT22;53173;52.176;5.314;2023-05-10T07:19:36;13.70;99.90
66375;DHT22;53173;52.176;5.314;2023-05-10T07:22:03;13.70;99.90
66375;DHT22;53173;52.176;5.314;2023-05-10T07:24:35;13.80;99.90
66375;DHT22;53173;52.176;5.314;2023-05-10T07:27:02;13.80;99.90
66375;DHT22;53173;52.176;5.314;2023-05-10T07:29:29;13.90;99.90
66375;DHT22;53173;52.176;5.314;2023-05-10T07:31:56;13.80;99.90
66375;DHT22;53173;52.176;5.314;2023-05-10T07:34:24;13.90;99.90
66375;DHT22;53173;52.176;5.314;2023-05-10T07:36:52;13.90;99.90
66375;DHT22;53173;52.176;5.314;2023-05-10T07:39:19;14.00;99.90
66375;DHT22;53173;52.176;5.314;2023-05-10T07:41:54;14.10;99.90
66375;DHT22;53173;52.176;5.314;2023-05-10T07:44:21;13.90;99.90
66375;DHT22;53173;52.176;5.314;2023-05-10T07:46:49;13.90;99.90
66375;DHT22;53173;52.176;5.314;2023-05-10T07:49:16;13.90;99.90
66375;DHT22;53173;52.176;5.314;2023-05-10T07:51:43;13.90;99.90
66375;DHT22;53173;52.176;5.314;2023-05-10T07:54:09;13.80;99.90
66375;DHT22;53173;52.176;5.314;2023-05-10T07:56:36;13.90;99.90
66375;DHT22;53173;52.176;5.314;2023-05-10T07:59:04;13.90;99.90
66375;DHT22;53173;52.176;5.314;2023-05-10T08:01:34;14.00;99.90
66375;DHT22;53173;52.176;5.314;2023-05-10T08:04:01;14.00;99.90
66375;DHT22;53173;52.176;5.314;2023-05-10T08:06:29;14.00;99.90
66375;DHT22;53173;52.176;5.314;2023-05-10T08:08:57;14.00;99.90
66375;DHT22;53173;52.176;5.314;2023-05-10T08:11:24;14.00;99.90
66375;DHT22;53173;52.176;5.314;2023-05-10T08:13:52;14.20;99.90
66375;DHT22;53173;52.176;5.314;2023-05-10T08:16:19;14.00;99.90
66375;DHT22;53173;52.176;5.314;2023-05-10T08:18:47;14.10;99.90
66375;DHT22;53173;52.176;5.314;2023-05-10T08:21:14;13.90;99.90
66375;DHT22;53173;52.176;5.314;2023-05-10T08:23:47;14.00;99.90
66375;DHT22;53173;52.176;5.314;2023-05-10T08:26:14;14.20;99.90
66375;DHT22;53173;52.176;5.314;2023-05-10T08:28:40;14.00;99.90
66375;DHT22;53173;52.176;5.314;2023-05-10T08:31:07;13.90;99.90
66375;DHT22;53173;52.176;5.314;2023-05-10T08:33:45;14.00;99.90
66375;DHT22;53173;52.176;5.314;2023-05-10T08:36:11;14.00;99.90
66375;DHT22;53173;52.176;5.314;2023-05-10T08:38:40;14.10;99.90
66375;DHT22;53173;52.176;5.314;2023-05-10T08:41:07;14.10;99.90
66375;DHT22;53173;52.176;5.314;2023-05-10T08:43:54;14.10;99.90
66375;DHT22;53173;52.176;5.314;2023-05-10T08:46:23;14.10;99.90
66375;DHT22;53173;52.176;5.314;2023-05-10T08:48:50;14.10;99.90
66375;DHT22;53173;52.176;5.314;2023-05-10T08:51:21;14.10;99.90
66375;DHT22;53173;52.176;5.314;2023-05-10T08:54:13;14.20;99.90
66375;DHT22;53173;52.176;5.314;2023-05-10T08:56:41;14.30;99.90
66375;DHT22;53173;52.176;5.314;2023-05-10T08:59:08;14.40;99.90
66375;DHT22;53173;52.176;5.314;2023-05-10T09:01:36;14.40;99.90
66375;DHT22;53173;52.176;5.314;2023-05-10T09:04:39;14.60;99.90
66375;DHT22;53173;52.176;5.314;2023-05-10T09:07:07;14.70;99.90
66375;DHT22;53173;52.176;5.314;2023-05-10T09:09:33;14.80;99.90
66375;DHT22;53173;52.176;5.314;2023-05-10T09:12:01;14.80;99.90
66375;DHT22;53173;52.176;5.314;2023-05-10T09:14:29;14.90;99.60
66375;DHT22;53173;52.176;5.314;2023-05-10T09:16:56;14.90;99.30
66375;DHT22;53173;52.176;5.314;2023-05-10T09:19:23;15.00;99.20
66375;DHT22;53173;52.176;5.314;2023-05-10T09:21:50;15.20;99.00
66375;DHT22;53173;52.176;5.314;2023-05-10T09:27:47;15.20;99.20
66375;DHT22;53173;52.176;5.314;2023-05-10T09:30:24;15.40;99.10
66375;DHT22;53173;52.176;5.314;2023-05-10T09:32:52;15.30;98.10
66375;DHT22;53173;52.176;5.314;2023-05-10T09:35:22;15.30;98.20
66375;DHT22;53173;52.176;5.314;2023-05-10T09:37:53;15.30;98.50
66375;DHT22;53173;52.176;5.314;2023-05-10T09:40:25;15.20;98.60
66375;DHT22;53173;52.176;5.314;2023-05-10T09:42:58;15.20;98.50
66375;DHT22;53173;52.176;5.314;2023-05-10T09:45:30;15.20;98.50
66375;DHT22;53173;52.176;5.314;2023-05-10T09:47:58;15.10;98.40
66375;DHT22;53173;52.176;5.314;2023-05-10T09:50:27;15.30;98.40
66375;DHT22;53173;52.176;5.314;2023-05-10T09:52:54;15.10;98.20
66375;DHT22;53173;52.176;5.314;2023-05-10T09:55:23;15.20;98.20
66375;DHT22;53173;52.176;5.314;2023-05-10T09:57:59;15.30;98.50
66375;DHT22;53173;52.176;5.314;2023-05-10T10:00:27;15.40;97.90
66375;DHT22;53173;52.176;5.314;2023-05-10T10:02:56;15.20;98.20
66375;DHT22;53173;52.176;5.314;2023-05-10T10:05:30;15.30;98.00
66375;DHT22;53173;52.176;5.314;2023-05-10T10:07:59;15.40;97.50
66375;DHT22;53173;52.176;5.314;2023-05-10T10:10:27;15.30;97.70
66375;DHT22;53173;52.176;5.314;2023-05-10T10:12:54;15.20;97.80
66375;DHT22;53173;52.176;5.314;2023-05-10T10:15:22;15.10;97.50
66375;DHT22;53173;52.176;5.314;2023-05-10T10:17:50;15.10;97.60
66375;DHT22;53173;52.176;5.314;2023-05-10T10:20:18;15.00;97.70
66375;DHT22;53173;52.176;5.314;2023-05-10T10:22:47;15.00;97.80
66375;DHT22;53173;52.176;5.314;2023-05-10T10:25:15;15.00;97.70
66375;DHT22;53173;52.176;5.314;2023-05-10T10:27:54;14.90;97.60
66375;DHT22;53173;52.176;5.314;2023-05-10T10:30:42;14.90;97.80
66375;DHT22;53173;52.176;5.314;2023-05-10T10:35:53;15.00;98.00
66375;DHT22;53173;52.176;5.314;2023-05-10T10:38:20;15.00;97.70
66375;DHT22;53173;52.176;5.314;2023-05-10T10:40:47;15.10;97.70
66375;DHT22;53173;52.176;5.314;2023-05-10T10:43:40;15.20;97.70
66375;DHT22;53173;52.176;5.314;2023-05-10T10:46:18;15.20;97.60
66375;DHT22;53173;52.176;5.314;2023-05-10T10:49:07;15.20;97.60
66375;DHT22;53173;52.176;5.314;2023-05-10T10:51:39;15.20;97.40
66375;DHT22;53173;52.176;5.314;2023-05-10T10:54:27;15.30;97.40
66375;DHT22;53173;52.176;5.314;2023-05-10T10:57:11;15.30;97.00
66375;DHT22;53173;52.176;5.314;2023-05-10T10:59:42;15.40;97.00
66375;DHT22;53173;52.176;5.314;2023-05-10T11:02:26;15.40;97.10
66375;DHT22;53173;52.176;5.314;2023-05-10T11:04:58;15.40;97.30
66375;DHT22;53173;52.176;5.314;2023-05-10T11:07:26;15.40;97.60
66375;DHT22;53173;52.176;5.314;2023-05-10T11:09:54;15.50;97.60
66375;DHT22;53173;52.176;5.314;2023-05-10T11:12:21;15.70;97.70
66375;DHT22;53173;52.176;5.314;2023-05-10T11:14:57;15.70;97.50
66375;DHT22;53173;52.176;5.314;2023-05-10T11:17:26;15.80;97.50
66375;DHT22;53173;52.176;5.314;2023-05-10T11:20:07;15.90;97.40
66375;DHT22;53173;52.176;5.314;2023-05-10T11:22:53;15.90;97.40
66375;DHT22;53173;52.176;5.314;2023-05-10T11:25:26;15.90;96.70
66375;DHT22;53173;52.176;5.314;2023-05-10T11:27:53;15.80;96.60
66375;DHT22;53173;52.176;5.314;2023-05-10T11:30:20;15.90;96.90
66375;DHT22;53173;52.176;5.314;2023-05-10T11:32:47;15.90;96.90
66375;DHT22;53173;52.176;5.314;2023-05-10T11:35:14;15.90;96.80
66375;DHT22;53173;52.176;5.314;2023-05-10T11:37:41;15.90;97.00
66375;DHT22;53173;52.176;5.314;2023-05-10T11:40:10;15.90;96.50
66375;DHT22;53173;52.176;5.314;2023-05-10T11:42:38;15.90;96.60
66375;DHT22;53173;52.176;5.314;2023-05-10T11:45:05;15.80;96.50
66375;DHT22;53173;52.176;5.314;2023-05-10T11:47:33;15.80;96.40
66375;DHT22;53173;52.176;5.314;2023-05-10T11:50:02;15.80;96.50
66375;DHT22;53173;52.176;5.314;2023-05-10T11:52:29;15.70;96.30
66375;DHT22;53173;52.176;5.314;2023-05-10T11:55:01;15.60;96.30
66375;DHT22;53173;52.176;5.314;2023-05-10T11:57:29;15.60;96.40
66375;DHT22;53173;52.176;5.314;2023-05-10T11:59:58;15.60;96.40
66375;DHT22;53173;52.176;5.314;2023-05-10T12:02:25;15.70;96.60
66375;DHT22;53173;52.176;5.314;2023-05-10T12:04:53;15.90;96.70
66375;DHT22;53173;52.176;5.314;2023-05-10T12:07:21;16.00;96.80
66375;DHT22;53173;52.176;5.314;2023-05-10T12:10:08;15.90;96.70
66375;DHT22;53173;52.176;5.314;2023-05-10T12:12:43;16.00;96.60
66375;DHT22;53173;52.176;5.314;2023-05-10T12:15:19;16.10;96.60
66375;DHT22;53173;52.176;5.314;2023-05-10T12:17:47;16.20;96.40
66375;DHT22;53173;52.176;5.314;2023-05-10T12:20:20;16.20;96.20
66375;DHT22;53173;52.176;5.314;2023-05-10T12:22:56;16.30;96.10
66375;DHT22;53173;52.176;5.314;2023-05-10T12:25:30;16.60;95.90
66375;DHT22;53173;52.176;5.314;2023-05-10T12:27:59;16.70;95.20
66375;DHT22;53173;52.176;5.314;2023-05-10T12:30:32;16.80;94.70
66375;DHT22;53173;52.176;5.314;2023-05-10T12:33:10;16.90;94.40
66375;DHT22;53173;52.176;5.314;2023-05-10T12:36:04;17.00;94.20
66375;DHT22;53173;52.176;5.314;2023-05-10T12:38:37;17.30;93.80
66375;DHT22;53173;52.176;5.314;2023-05-10T12:41:10;17.40;92.50
66375;DHT22;53173;52.176;5.314;2023-05-10T12:43:42;17.60;92.50
66375;DHT22;53173;52.176;5.314;2023-05-10T12:46:14;17.70;92.50
66375;DHT22;53173;52.176;5.314;2023-05-10T12:48:43;17.80;92.40
66375;DHT22;53173;52.176;5.314;2023-05-10T12:51:11;17.60;91.90
66375;DHT22;53173;52.176;5.314;2023-05-10T12:56:47;17.50;91.90
66375;DHT22;53173;52.176;5.314;2023-05-10T12:59:14;17.40;92.00
66375;DHT22;53173;52.176;5.314;2023-05-10T13:01:41;17.30;92.20
66375;DHT22;53173;52.176;5.314;2023-05-10T13:04:33;17.30;92.30
66375;DHT22;53173;52.176;5.314;2023-05-10T13:07:00;17.30;92.40
66375;DHT22;53173;52.176;5.314;2023-05-10T13:09:27;17.20;92.40
66375;DHT22;53173;52.176;5.314;2023-05-10T13:11:56;17.10;92.20
66375;DHT22;53173;52.176;5.314;2023-05-10T13:14:31;17.00;92.20
66375;DHT22;53173;52.176;5.314;2023-05-10T13:17:22;16.90;92.60
66375;DHT22;53173;52.176;5.314;2023-05-10T13:19:57;16.50;92.90
66375;DHT22;53173;52.176;5.314;2023-05-10T13:25:48;16.30;93.50
66375;DHT22;53173;52.176;5.314;2023-05-10T13:28:15;16.20;93.70
66375;DHT22;53173;52.176;5.314;2023-05-10T13:30:42;16.10;94.00
66375;DHT22;53173;52.176;5.314;2023-05-10T13:33:25;16.00;94.20
66375;DHT22;53173;52.176;5.314;2023-05-10T13:35:55;15.90;94.40
66375;DHT22;53173;52.176;5.314;2023-05-10T13:38:23;15.90;94.80
66375;DHT22;53173;52.176;5.314;2023-05-10T13:40:50;15.80;95.00
66375;DHT22;53173;52.176;5.314;2023-05-10T13:43:20;15.80;95.30
66375;DHT22;53173;52.176;5.314;2023-05-10T13:45:47;15.80;95.60
66375;DHT22;53173;52.176;5.314;2023-05-10T13:48:15;15.70;95.70
66375;DHT22;53173;52.176;5.314;2023-05-10T13:50:42;15.70;95.90
66375;DHT22;53173;52.176;5.314;2023-05-10T13:53:15;15.70;96.40
66375;DHT22;53173;52.176;5.314;2023-05-10T13:55:42;15.60;96.70
66375;DHT22;53173;52.176;5.314;2023-05-10T13:58:09;15.60;97.20
66375;DHT22;53173;52.176;5.314;2023-05-10T14:00:35;15.50;97.50
66375;DHT22;53173;52.176;5.314;2023-05-10T14:03:02;15.50;97.70
66375;DHT22;53173;52.176;5.314;2023-05-10T14:05:31;15.50;97.80
66375;DHT22;53173;52.176;5.314;2023-05-10T14:07:58;15.40;98.10
66375;DHT22;53173;52.176;5.314;2023-05-10T14:10:27;15.50;98.40
66375;DHT22;53173;52.176;5.314;2023-05-10T14:12:54;15.40;98.50
66375;DHT22;53173;52.176;5.314;2023-05-10T14:15:21;15.50;98.60
66375;DHT22;53173;52.176;5.314;2023-05-10T14:17:47;15.40;98.60
66375;DHT22;53173;52.176;5.314;2023-05-10T14:20:18;15.40;98.80
66375;DHT22;53173;52.176;5.314;2023-05-10T14:22:48;15.40;99.00
66375;DHT22;53173;52.176;5.314;2023-05-10T14:25:18;15.40;99.20
66375;DHT22;53173;52.176;5.314;2023-05-10T14:27:52;15.40;99.30
66375;DHT22;53173;52.176;5.314;2023-05-10T14:30:21;15.50;99.40
66375;DHT22;53173;52.176;5.314;2023-05-10T14:32:48;15.40;99.40
66375;DHT22;53173;52.176;5.314;2023-05-10T14:35:16;15.50;99.50
66375;DHT22;53173;52.176;5.314;2023-05-10T14:37:45;15.40;99.50
66375;DHT22;53173;52.176;5.314;2023-05-10T14:40:12;15.40;99.60
66375;DHT22;53173;52.176;5.314;2023-05-10T14:42:42;15.40;99.70
66375;DHT22;53173;52.176;5.314;2023-05-10T14:45:10;15.40;99.70
66375;DHT22;53173;52.176;5.314;2023-05-10T14:47:37;15.50;99.90
66375;DHT22;53173;52.176;5.314;2023-05-10T14:50:05;15.60;99.90
66375;DHT22;53173;52.176;5.314;2023-05-10T14:52:32;15.40;99.90
66375;DHT22;53173;52.176;5.314;2023-05-10T14:55:00;15.50;99.90
66375;DHT22;53173;52.176;5.314;2023-05-10T14:57:28;15.60;99.90
66375;DHT22;53173;52.176;5.314;2023-05-10T14:59:56;15.60;99.90
66375;DHT22;53173;52.176;5.314;2023-05-10T15:02:24;15.60;99.90
66375;DHT22;53173;52.176;5.314;2023-05-10T15:04:57;15.60;99.90
66375;DHT22;53173;52.176;5.314;2023-05-10T15:07:25;15.70;99.90
66375;DHT22;53173;52.176;5.314;2023-05-10T15:09:52;15.70;99.90
66375;DHT22;53173;52.176;5.314;2023-05-10T15:12:19;15.90;99.90
66375;DHT22;53173;52.176;5.314;2023-05-10T15:15:01;15.90;99.90
66375;DHT22;53173;52.176;5.314;2023-05-10T15:17:28;16.00;99.90
66375;DHT22;53173;52.176;5.314;2023-05-10T15:19:55;16.20;99.90
66375;DHT22;53173;52.176;5.314;2023-05-10T15:22:23;15.90;99.90
66375;DHT22;53173;52.176;5.314;2023-05-10T15:24:57;16.10;99.90
66375;DHT22;53173;52.176;5.314;2023-05-10T15:27:25;16.10;99.90
66375;DHT22;53173;52.176;5.314;2023-05-10T15:29:52;16.20;99.90
66375;DHT22;53173;52.176;5.314;2023-05-10T15:32:19;16.20;99.70
66375;DHT22;53173;52.176;5.314;2023-05-10T15:34:46;16.20;99.00
66375;DHT22;53173;52.176;5.314;2023-05-10T15:37:13;16.20;99.00
66375;DHT22;53173;52.176;5.314;2023-05-10T15:39:40;16.20;99.00
66375;DHT22;53173;52.176;5.314;2023-05-10T15:42:07;16.30;98.80
66375;DHT22;53173;52.176;5.314;2023-05-10T15:44:34;16.30;98.90
66375;DHT22;53173;52.176;5.314;2023-05-10T15:47:05;16.40;98.80
66375;DHT22;53173;52.176;5.314;2023-05-10T15:49:32;16.30;98.70
66375;DHT22;53173;52.176;5.314;2023-05-10T15:51:59;16.20;98.60
66375;DHT22;53173;52.176;5.314;2023-05-10T15:54:51;16.30;98.70
66375;DHT22;53173;52.176;5.314;2023-05-10T15:57:18;16.40;98.80
66375;DHT22;53173;52.176;5.314;2023-05-10T15:59:45;16.40;98.80
66375;DHT22;53173;52.176;5.314;2023-05-10T16:02:12;16.40;98.70
66375;DHT22;53173;52.176;5.314;2023-05-10T16:04:41;16.40;98.50
66375;DHT22;53173;52.176;5.314;2023-05-10T16:07:21;16.30;98.10
66375;DHT22;53173;52.176;5.314;2023-05-10T16:09:48;16.30;98.00
66375;DHT22;53173;52.176;5.314;2023-05-10T16:12:15;16.30;98.00
66375;DHT22;53173;52.176;5.314;2023-05-10T16:14:47;16.30;97.90
66375;DHT22;53173;52.176;5.314;2023-05-10T16:17:14;16.40;97.80
66375;DHT22;53173;52.176;5.314;2023-05-10T16:19:41;16.40;97.80